sensor_id;sensor_type;location;lat;lon;timestamp;P1;durP1;ratioP1;P2;durP2;ratioP2
8213;SDS011;4148;47.974;7.824;2023-01-29T00:01:33;11.67;;;7.90;;
8213;SDS011;4148;47.974;7.824;2023-01-29T00:04:00;15.03;;;9.20;;
8213;SDS011;4148;47.974;7.824;2023-01-29T00:06:28;13.20;;;9.20;;
8213;SDS011;4148;47.974;7.824;2023-01-29T00:08:58;13.50;;;8.80;;
8213;SDS011;4148;47.974;7.824;2023-01-29T00:11:26;12.03;;;8.70;;
8213;SDS011;4148;47.974;7.824;2023-01-29T00:13:54;11.40;;;8.60;;
8213;SDS011;4148;47.974;7.824;2023-01-29T00:16:22;14.00;;;9.17;;
8213;SDS011;4148;47.974;7.824;2023-01-29T00:18:50;14.07;;;8.40;;
8213;SDS011;4148;47.974;7.824;2023-01-29T00:21:19;16.13;;;9.77;;
8213;SDS011;4148;47.974;7.824;2023-01-29T00:23:48;12.57;;;9.00;;
8213;SDS011;4148;47.974;7.824;2023-01-29T00:26:18;11.50;;;8.93;;
8213;SDS011;4148;47.974;7.824;2023-01-29T00:28:46;15.30;;;8.07;;
8213;SDS011;4148;47.974;7.824;2023-01-29T00:31:14;13.93;;;9.07;;
8213;SDS011;4148;47.974;7.824;2023-01-29T00:33:44;12.27;;;8.80;;
8213;SDS011;4148;47.974;7.824;2023-01-29T00:36:12;13.23;;;9.10;;
8213;SDS011;4148;47.974;7.824;2023-01-29T00:38:41;14.47;;;8.93;;
8213;SDS011;4148;47.974;7.824;2023-01-29T00:41:10;14.77;;;9.57;;
8213;SDS011;4148;47.974;7.824;2023-01-29T00:43:58;12.23;;;8.00;;
8213;SDS011;4148;47.974;7.824;2023-01-29T00:46:43;13.13;;;9.50;;
8213;SDS011;4148;47.974;7.824;2023-01-29T00:49:11;15.03;;;9.80;;
8213;SDS011;4148;47.974;7.824;2023-01-29T00:51:39;16.27;;;8.53;;
8213;SDS011;4148;47.974;7.824;2023-01-29T00:54:07;15.97;;;9.60;;
8213;SDS011;4148;47.974;7.824;2023-01-29T00:56:35;15.97;;;10.10;;
8213;SDS011;4148;47.974;7.824;2023-01-29T00:59:05;15.97;;;9.73;;
8213;SDS011;4148;47.974;7.824;2023-01-29T01:01:32;15.53;;;9.63;;
8213;SDS011;4148;47.974;7.824;2023-01-29T01:04:18;17.77;;;10.57;;
8213;SDS011;4148;47.974;7.824;2023-01-29T01:06:46;14.83;;;9.73;;
8213;SDS011;4148;47.974;7.824;2023-01-29T01:09:13;17.00;;;9.10;;
8213;SDS011;4148;47.974;7.824;2023-01-29T01:12:07;16.77;;;10.50;;
8213;SDS011;4148;47.974;7.824;2023-01-29T01:14:36;14.10;;;9.23;;
8213;SDS011;4148;47.974;7.824;2023-01-29T01:17:08;14.73;;;9.40;;
8213;SDS011;4148;47.974;7.824;2023-01-29T01:19:36;13.93;;;9.17;;
8213;SDS011;4148;47.974;7.824;2023-01-29T01:22:04;13.20;;;9.27;;
8213;SDS011;4148;47.974;7.824;2023-01-29T01:24:31;16.20;;;10.10;;
8213;SDS011;4148;47.974;7.824;2023-01-29T01:26:59;16.00;;;10.57;;
8213;SDS011;4148;47.974;7.824;2023-01-29T01:29:27;15.70;;;10.17;;
8213;SDS011;4148;47.974;7.824;2023-01-29T01:31:56;12.80;;;9.00;;
8213;SDS011;4148;47.974;7.824;2023-01-29T01:34:25;13.53;;;9.73;;
8213;SDS011;4148;47.974;7.824;2023-01-29T01:36:53;12.33;;;9.10;;
8213;SDS011;4148;47.974;7.824;2023-01-29T01:39:22;14.00;;;9.97;;
8213;SDS011;4148;47.974;7.824;2023-01-29T01:41:50;14.23;;;9.43;;
8213;SDS011;4148;47.974;7.824;2023-01-29T01:47:21;15.20;;;9.20;;
8213;SDS011;4148;47.974;7.824;2023-01-29T01:49:57;15.90;;;10.07;;
8213;SDS011;4148;47.974;7.824;2023-01-29T01:52:29;14.90;;;9.13;;
8213;SDS011;4148;47.974;7.824;2023-01-29T01:54:58;15.27;;;9.70;;
8213;SDS011;4148;47.974;7.824;2023-01-29T01:57:27;12.43;;;8.67;;
8213;SDS011;4148;47.974;7.824;2023-01-29T01:59:57;13.50;;;10.07;;
8213;SDS011;4148;47.974;7.824;2023-01-29T02:02:36;18.03;;;10.80;;
8213;SDS011;4148;47.974;7.824;2023-01-29T02:05:23;13.83;;;9.70;;
8213;SDS011;4148;47.974;7.824;2023-01-29T02:08:09;12.73;;;9.50;;
8213;SDS011;4148;47.974;7.824;2023-01-29T02:10:56;13.70;;;9.17;;
8213;SDS011;4148;47.974;7.824;2023-01-29T02:13:25;15.93;;;9.70;;
8213;SDS011;4148;47.974;7.824;2023-01-29T02:15:53;14.83;;;9.37;;
8213;SDS011;4148;47.974;7.824;2023-01-29T02:18:22;16.63;;;10.00;;
8213;SDS011;4148;47.974;7.824;2023-01-29T02:20:56;14.67;;;9.60;;
8213;SDS011;4148;47.974;7.824;2023-01-29T02:23:47;15.80;;;10.23;;
8213;SDS011;4148;47.974;7.824;2023-01-29T02:26:33;15.60;;;9.90;;
8213;SDS011;4148;47.974;7.824;2023-01-29T02:29:13;18.40;;;10.17;;
8213;SDS011;4148;47.974;7.824;2023-01-29T02:31:52;15.60;;;9.93;;
8213;SDS011;4148;47.974;7.824;2023-01-29T02:34:28;19.53;;;10.70;;
8213;SDS011;4148;47.974;7.824;2023-01-29T02:37:23;14.53;;;9.60;;
8213;SDS011;4148;47.974;7.824;2023-01-29T02:40:04;13.80;;;9.23;;
8213;SDS011;4148;47.974;7.824;2023-01-29T02:42:40;14.70;;;9.30;;
8213;SDS011;4148;47.974;7.824;2023-01-29T02:45:19;14.27;;;9.67;;
8213;SDS011;4148;47.974;7.824;2023-01-29T02:47:54;12.03;;;8.87;;
8213;SDS011;4148;47.974;7.824;2023-01-29T02:50:25;14.00;;;9.23;;
8213;SDS011;4148;47.974;7.824;2023-01-29T02:53:00;14.90;;;9.80;;
8213;SDS011;4148;47.974;7.824;2023-01-29T02:55:33;15.00;;;9.63;;
8213;SDS011;4148;47.974;7.824;2023-01-29T02:58:06;14.10;;;9.70;;
8213;SDS011;4148;47.974;7.824;2023-01-29T03:00:40;15.00;;;10.10;;
8213;SDS011;4148;47.974;7.824;2023-01-29T03:03:11;17.80;;;11.03;;
8213;SDS011;4148;47.974;7.824;2023-01-29T03:05:45;15.97;;;9.63;;
8213;SDS011;4148;47.974;7.824;2023-01-29T03:08:30;16.07;;;10.47;;
8213;SDS011;4148;47.974;7.824;2023-01-29T03:11:08;14.80;;;9.90;;
8213;SDS011;4148;47.974;7.824;2023-01-29T03:13:40;15.50;;;9.87;;
8213;SDS011;4148;47.974;7.824;2023-01-29T03:16:15;15.90;;;10.13;;
8213;SDS011;4148;47.974;7.824;2023-01-29T03:18:48;16.00;;;10.50;;
8213;SDS011;4148;47.974;7.824;2023-01-29T03:21:22;19.87;;;10.97;;
8213;SDS011;4148;47.974;7.824;2023-01-29T03:24:12;13.27;;;8.97;;
8213;SDS011;4148;47.974;7.824;2023-01-29T03:27:01;20.20;;;10.73;;
8213;SDS011;4148;47.974;7.824;2023-01-29T03:29:50;14.37;;;9.13;;
8213;SDS011;4148;47.974;7.824;2023-01-29T03:32:38;16.27;;;10.67;;
8213;SDS011;4148;47.974;7.824;2023-01-29T03:35:08;19.10;;;10.17;;
8213;SDS011;4148;47.974;7.824;2023-01-29T03:37:39;16.67;;;10.40;;
8213;SDS011;4148;47.974;7.824;2023-01-29T03:40:10;16.13;;;9.80;;
8213;SDS011;4148;47.974;7.824;2023-01-29T03:42:43;16.63;;;10.07;;
8213;SDS011;4148;47.974;7.824;2023-01-29T03:45:18;17.70;;;11.17;;
8213;SDS011;4148;47.974;7.824;2023-01-29T03:47:55;16.00;;;10.83;;
8213;SDS011;4148;47.974;7.824;2023-01-29T03:50:34;16.90;;;10.37;;
8213;SDS011;4148;47.974;7.824;2023-01-29T03:53:07;15.90;;;9.83;;
8213;SDS011;4148;47.974;7.824;2023-01-29T03:55:44;15.77;;;10.27;;
8213;SDS011;4148;47.974;7.824;2023-01-29T03:58:22;17.40;;;10.10;;
8213;SDS011;4148;47.974;7.824;2023-01-29T04:00:56;15.63;;;10.33;;
8213;SDS011;4148;47.974;7.824;2023-01-29T04:03:30;15.43;;;9.80;;
8213;SDS011;4148;47.974;7.824;2023-01-29T04:06:03;15.00;;;9.53;;
8213;SDS011;4148;47.974;7.824;2023-01-29T04:08:39;16.27;;;10.17;;
8213;SDS011;4148;47.974;7.824;2023-01-29T04:11:13;17.03;;;10.60;;
8213;SDS011;4148;47.974;7.824;2023-01-29T04:13:43;20.23;;;9.37;;
8213;SDS011;4148;47.974;7.824;2023-01-29T04:16:15;17.00;;;9.70;;
8213;SDS011;4148;47.974;7.824;2023-01-29T04:18:48;15.67;;;9.80;;
8213;SDS011;4148;47.974;7.824;2023-01-29T04:21:16;16.07;;;10.87;;
8213;SDS011;4148;47.974;7.824;2023-01-29T04:23:45;18.33;;;10.70;;
8213;SDS011;4148;47.974;7.824;2023-01-29T04:29:29;17.03;;;11.23;;
8213;SDS011;4148;47.974;7.824;2023-01-29T04:32:08;17.10;;;10.40;;
8213;SDS011;4148;47.974;7.824;2023-01-29T04:34:47;14.50;;;9.93;;
8213;SDS011;4148;47.974;7.824;2023-01-29T04:37:29;15.60;;;10.10;;
8213;SDS011;4148;47.974;7.824;2023-01-29T04:40:05;18.57;;;10.63;;
8213;SDS011;4148;47.974;7.824;2023-01-29T04:42:41;18.07;;;10.60;;
8213;SDS011;4148;47.974;7.824;2023-01-29T04:45:16;16.20;;;9.93;;
8213;SDS011;4148;47.974;7.824;2023-01-29T04:47:49;17.97;;;10.93;;
8213;SDS011;4148;47.974;7.824;2023-01-29T04:50:27;17.07;;;11.00;;
8213;SDS011;4148;47.974;7.824;2023-01-29T04:53:02;17.10;;;11.10;;
8213;SDS011;4148;47.974;7.824;2023-01-29T04:55:37;18.33;;;10.80;;
8213;SDS011;4148;47.974;7.824;2023-01-29T04:58:10;18.63;;;11.13;;
8213;SDS011;4148;47.974;7.824;2023-01-29T05:00:44;18.70;;;11.37;;
8213;SDS011;4148;47.974;7.824;2023-01-29T05:03:15;20.13;;;11.17;;
8213;SDS011;4148;47.974;7.824;2023-01-29T05:05:45;18.33;;;11.20;;
8213;SDS011;4148;47.974;7.824;2023-01-29T05:08:16;16.93;;;10.50;;
8213;SDS011;4148;47.974;7.824;2023-01-29T05:10:46;18.17;;;11.17;;
8213;SDS011;4148;47.974;7.824;2023-01-29T05:13:16;19.10;;;10.63;;
8213;SDS011;4148;47.974;7.824;2023-01-29T05:15:46;19.70;;;11.07;;
8213;SDS011;4148;47.974;7.824;2023-01-29T05:18:16;18.00;;;9.73;;
8213;SDS011;4148;47.974;7.824;2023-01-29T05:20:45;17.10;;;10.30;;
8213;SDS011;4148;47.974;7.824;2023-01-29T05:23:15;17.60;;;11.53;;
8213;SDS011;4148;47.974;7.824;2023-01-29T05:25:44;21.30;;;11.80;;
8213;SDS011;4148;47.974;7.824;2023-01-29T05:28:13;15.80;;;10.63;;
8213;SDS011;4148;47.974;7.824;2023-01-29T05:30:42;18.50;;;12.00;;
8213;SDS011;4148;47.974;7.824;2023-01-29T05:33:12;19.70;;;11.40;;
8213;SDS011;4148;47.974;7.824;2023-01-29T05:35:41;17.83;;;11.20;;
8213;SDS011;4148;47.974;7.824;2023-01-29T05:38:10;16.80;;;11.03;;
8213;SDS011;4148;47.974;7.824;2023-01-29T05:40:38;17.93;;;11.43;;
8213;SDS011;4148;47.974;7.824;2023-01-29T05:43:11;18.00;;;11.20;;
8213;SDS011;4148;47.974;7.824;2023-01-29T05:45:40;21.03;;;11.80;;
8213;SDS011;4148;47.974;7.824;2023-01-29T05:48:08;17.83;;;10.90;;
8213;SDS011;4148;47.974;7.824;2023-01-29T05:50:36;20.33;;;11.50;;
8213;SDS011;4148;47.974;7.824;2023-01-29T05:53:04;18.83;;;11.20;;
8213;SDS011;4148;47.974;7.824;2023-01-29T05:55:33;18.27;;;11.47;;
8213;SDS011;4148;47.974;7.824;2023-01-29T05:58:01;16.30;;;10.40;;
8213;SDS011;4148;47.974;7.824;2023-01-29T06:00:31;18.53;;;10.73;;
8213;SDS011;4148;47.974;7.824;2023-01-29T06:02:59;16.93;;;11.00;;
8213;SDS011;4148;47.974;7.824;2023-01-29T06:05:26;22.20;;;12.10;;
8213;SDS011;4148;47.974;7.824;2023-01-29T06:07:54;19.87;;;11.23;;
8213;SDS011;4148;47.974;7.824;2023-01-29T06:10:22;21.80;;;12.00;;
8213;SDS011;4148;47.974;7.824;2023-01-29T06:12:52;19.67;;;12.07;;
8213;SDS011;4148;47.974;7.824;2023-01-29T06:15:20;19.43;;;11.23;;
8213;SDS011;4148;47.974;7.824;2023-01-29T06:17:47;17.67;;;11.00;;
8213;SDS011;4148;47.974;7.824;2023-01-29T06:20:15;23.63;;;12.57;;
8213;SDS011;4148;47.974;7.824;2023-01-29T06:22:44;28.83;;;14.17;;
8213;SDS011;4148;47.974;7.824;2023-01-29T06:25:12;19.47;;;12.07;;
8213;SDS011;4148;47.974;7.824;2023-01-29T06:27:40;26.60;;;12.97;;
8213;SDS011;4148;47.974;7.824;2023-01-29T06:30:10;30.43;;;13.83;;
8213;SDS011;4148;47.974;7.824;2023-01-29T06:32:38;22.53;;;12.50;;
8213;SDS011;4148;47.974;7.824;2023-01-29T06:35:07;28.93;;;13.30;;
8213;SDS011;4148;47.974;7.824;2023-01-29T06:37:35;27.53;;;13.80;;
8213;SDS011;4148;47.974;7.824;2023-01-29T06:40:04;25.20;;;12.83;;
8213;SDS011;4148;47.974;7.824;2023-01-29T06:42:33;32.90;;;14.50;;
8213;SDS011;4148;47.974;7.824;2023-01-29T06:45:01;27.13;;;14.03;;
8213;SDS011;4148;47.974;7.824;2023-01-29T06:47:30;30.47;;;13.37;;
8213;SDS011;4148;47.974;7.824;2023-01-29T06:49:58;27.53;;;13.20;;
8213;SDS011;4148;47.974;7.824;2023-01-29T06:52:26;22.00;;;12.87;;
8213;SDS011;4148;47.974;7.824;2023-01-29T06:54:55;24.70;;;11.93;;
8213;SDS011;4148;47.974;7.824;2023-01-29T06:57:23;22.43;;;12.20;;
8213;SDS011;4148;47.974;7.824;2023-01-29T06:59:50;19.30;;;11.03;;
8213;SDS011;4148;47.974;7.824;2023-01-29T07:02:18;24.10;;;12.90;;
8213;SDS011;4148;47.974;7.824;2023-01-29T07:04:48;20.53;;;11.63;;
8213;SDS011;4148;47.974;7.824;2023-01-29T07:07:15;19.47;;;10.90;;
8213;SDS011;4148;47.974;7.824;2023-01-29T07:09:43;17.20;;;10.70;;
8213;SDS011;4148;47.974;7.824;2023-01-29T07:12:11;15.20;;;9.93;;
8213;SDS011;4148;47.974;7.824;2023-01-29T07:14:39;20.17;;;11.30;;
8213;SDS011;4148;47.974;7.824;2023-01-29T07:17:07;21.30;;;11.40;;
8213;SDS011;4148;47.974;7.824;2023-01-29T07:19:34;17.33;;;10.67;;
8213;SDS011;4148;47.974;7.824;2023-01-29T07:22:03;18.10;;;11.90;;
8213;SDS011;4148;47.974;7.824;2023-01-29T07:24:31;19.53;;;11.53;;
8213;SDS011;4148;47.974;7.824;2023-01-29T07:26:59;22.90;;;13.27;;
8213;SDS011;4148;47.974;7.824;2023-01-29T07:29:27;22.37;;;13.00;;
8213;SDS011;4148;47.974;7.824;2023-01-29T07:31:55;24.47;;;13.90;;
8213;SDS011;4148;47.974;7.824;2023-01-29T07:34:23;24.03;;;13.33;;
8213;SDS011;4148;47.974;7.824;2023-01-29T07:36:51;24.57;;;13.30;;
8213;SDS011;4148;47.974;7.824;2023-01-29T07:39:21;26.53;;;14.93;;
8213;SDS011;4148;47.974;7.824;2023-01-29T07:41:48;24.97;;;14.77;;
8213;SDS011;4148;47.974;7.824;2023-01-29T07:44:16;23.17;;;12.97;;
8213;SDS011;4148;47.974;7.824;2023-01-29T07:46:44;15.70;;;11.00;;
8213;SDS011;4148;47.974;7.824;2023-01-29T07:49:12;17.23;;;10.10;;
8213;SDS011;4148;47.974;7.824;2023-01-29T07:51:40;14.03;;;9.27;;
8213;SDS011;4148;47.974;7.824;2023-01-29T07:54:08;18.10;;;9.83;;
8213;SDS011;4148;47.974;7.824;2023-01-29T07:56:37;16.97;;;10.77;;
8213;SDS011;4148;47.974;7.824;2023-01-29T07:59:05;14.47;;;9.83;;
8213;SDS011;4148;47.974;7.824;2023-01-29T08:01:32;18.53;;;12.07;;
8213;SDS011;4148;47.974;7.824;2023-01-29T08:04:00;19.13;;;11.10;;
8213;SDS011;4148;47.974;7.824;2023-01-29T08:06:28;19.87;;;11.50;;
8213;SDS011;4148;47.974;7.824;2023-01-29T08:08:56;15.70;;;10.03;;
8213;SDS011;4148;47.974;7.824;2023-01-29T08:11:24;19.03;;;10.97;;
8213;SDS011;4148;47.974;7.824;2023-01-29T08:13:54;18.07;;;11.53;;
8213;SDS011;4148;47.974;7.824;2023-01-29T08:16:22;17.77;;;11.30;;
8213;SDS011;4148;47.974;7.824;2023-01-29T08:18:50;18.30;;;10.50;;
8213;SDS011;4148;47.974;7.824;2023-01-29T08:21:18;19.10;;;10.67;;
8213;SDS011;4148;47.974;7.824;2023-01-29T08:23:45;15.93;;;10.67;;
8213;SDS011;4148;47.974;7.824;2023-01-29T08:26:13;16.47;;;11.23;;
8213;SDS011;4148;47.974;7.824;2023-01-29T08:28:41;15.40;;;11.20;;
8213;SDS011;4148;47.974;7.824;2023-01-29T08:31:14;16.40;;;10.20;;
8213;SDS011;4148;47.974;7.824;2023-01-29T08:33:42;18.90;;;11.57;;
8213;SDS011;4148;47.974;7.824;2023-01-29T08:36:10;18.40;;;10.90;;
8213;SDS011;4148;47.974;7.824;2023-01-29T08:38:38;18.90;;;11.20;;
8213;SDS011;4148;47.974;7.824;2023-01-29T08:41:06;23.93;;;12.13;;
8213;SDS011;4148;47.974;7.824;2023-01-29T08:43:34;19.83;;;11.27;;
8213;SDS011;4148;47.974;7.824;2023-01-29T08:46:04;17.03;;;11.27;;
8213;SDS011;4148;47.974;7.824;2023-01-29T08:48:34;17.47;;;10.93;;
8213;SDS011;4148;47.974;7.824;2023-01-29T08:51:02;21.77;;;11.50;;
8213;SDS011;4148;47.974;7.824;2023-01-29T08:53:30;18.00;;;11.60;;
8213;SDS011;4148;47.974;7.824;2023-01-29T08:55:59;17.93;;;11.37;;
8213;SDS011;4148;47.974;7.824;2023-01-29T08:58:26;18.40;;;11.50;;
8213;SDS011;4148;47.974;7.824;2023-01-29T09:00:54;18.10;;;10.20;;
8213;SDS011;4148;47.974;7.824;2023-01-29T09:03:22;16.93;;;10.40;;
8213;SDS011;4148;47.974;7.824;2023-01-29T09:05:51;19.43;;;11.17;;
8213;SDS011;4148;47.974;7.824;2023-01-29T09:08:19;24.53;;;12.37;;
8213;SDS011;4148;47.974;7.824;2023-01-29T09:10:47;18.47;;;10.67;;
8213;SDS011;4148;47.974;7.824;2023-01-29T09:13:15;19.70;;;11.23;;
8213;SDS011;4148;47.974;7.824;2023-01-29T09:15:42;17.20;;;11.40;;
8213;SDS011;4148;47.974;7.824;2023-01-29T09:18:10;17.33;;;11.50;;
8213;SDS011;4148;47.974;7.824;2023-01-29T09:20:38;17.30;;;11.40;;
8213;SDS011;4148;47.974;7.824;2023-01-29T09:23:07;19.43;;;11.17;;
8213;SDS011;4148;47.974;7.824;2023-01-29T09:25:36;21.40;;;11.13;;
8213;SDS011;4148;47.974;7.824;2023-01-29T09:28:04;16.13;;;10.67;;
8213;SDS011;4148;47.974;7.824;2023-01-29T09:30:32;18.23;;;11.57;;
8213;SDS011;4148;47.974;7.824;2023-01-29T09:33:03;18.20;;;11.10;;
8213;SDS011;4148;47.974;7.824;2023-01-29T09:35:31;20.67;;;12.10;;
8213;SDS011;4148;47.974;7.824;2023-01-29T09:37:59;16.17;;;11.23;;
8213;SDS011;4148;47.974;7.824;2023-01-29T09:40:30;17.90;;;11.07;;
8213;SDS011;4148;47.974;7.824;2023-01-29T09:43:05;20.00;;;12.30;;
8213;SDS011;4148;47.974;7.824;2023-01-29T09:45:39;16.77;;;11.13;;
8213;SDS011;4148;47.974;7.824;2023-01-29T09:48:16;18.33;;;11.87;;
8213;SDS011;4148;47.974;7.824;2023-01-29T09:50:46;19.67;;;11.30;;
8213;SDS011;4148;47.974;7.824;2023-01-29T09:53:18;20.03;;;11.10;;
8213;SDS011;4148;47.974;7.824;2023-01-29T09:55:51;17.43;;;11.40;;
8213;SDS011;4148;47.974;7.824;2023-01-29T09:58:26;15.07;;;10.80;;
8213;SDS011;4148;47.974;7.824;2023-01-29T10:00:59;15.37;;;10.50;;
8213;SDS011;4148;47.974;7.824;2023-01-29T10:03:44;19.90;;;11.40;;
8213;SDS011;4148;47.974;7.824;2023-01-29T10:06:27;18.60;;;10.50;;
8213;SDS011;4148;47.974;7.824;2023-01-29T10:09:14;16.73;;;11.57;;
8213;SDS011;4148;47.974;7.824;2023-01-29T10:12:02;17.67;;;9.77;;
8213;SDS011;4148;47.974;7.824;2023-01-29T10:14:41;17.53;;;10.60;;
8213;SDS011;4148;47.974;7.824;2023-01-29T10:17:20;19.50;;;10.83;;
8213;SDS011;4148;47.974;7.824;2023-01-29T10:20:11;17.43;;;10.87;;
8213;SDS011;4148;47.974;7.824;2023-01-29T10:23:01;17.97;;;10.87;;
8213;SDS011;4148;47.974;7.824;2023-01-29T10:25:38;16.10;;;11.63;;
8213;SDS011;4148;47.974;7.824;2023-01-29T10:28:13;14.93;;;9.60;;
8213;SDS011;4148;47.974;7.824;2023-01-29T10:30:45;14.57;;;10.33;;
8213;SDS011;4148;47.974;7.824;2023-01-29T10:33:17;16.10;;;10.00;;
8213;SDS011;4148;47.974;7.824;2023-01-29T10:35:48;17.73;;;11.67;;
8213;SDS011;4148;47.974;7.824;2023-01-29T10:38:23;14.93;;;10.87;;
8213;SDS011;4148;47.974;7.824;2023-01-29T10:41:03;21.43;;;11.23;;
8213;SDS011;4148;47.974;7.824;2023-01-29T10:43:37;12.37;;;9.57;;
8213;SDS011;4148;47.974;7.824;2023-01-29T10:46:16;15.13;;;10.37;;
8213;SDS011;4148;47.974;7.824;2023-01-29T10:48:53;18.60;;;10.33;;
8213;SDS011;4148;47.974;7.824;2023-01-29T10:51:33;14.20;;;9.77;;
8213;SDS011;4148;47.974;7.824;2023-01-29T10:54:25;10.50;;;7.57;;
8213;SDS011;4148;47.974;7.824;2023-01-29T10:57:07;10.83;;;7.63;;
8213;SDS011;4148;47.974;7.824;2023-01-29T10:59:50;11.30;;;8.43;;
8213;SDS011;4148;47.974;7.824;2023-01-29T11:02:26;6.40;;;5.20;;
8213;SDS011;4148;47.974;7.824;2023-01-29T11:04:54;8.23;;;6.13;;
8213;SDS011;4148;47.974;7.824;2023-01-29T11:07:22;9.13;;;6.13;;
8213;SDS011;4148;47.974;7.824;2023-01-29T11:09:54;12.47;;;8.13;;
8213;SDS011;4148;47.974;7.824;2023-01-29T11:12:27;8.90;;;6.40;;
8213;SDS011;4148;47.974;7.824;2023-01-29T11:15:00;8.43;;;5.40;;
8213;SDS011;4148;47.974;7.824;2023-01-29T11:17:32;8.57;;;5.80;;
8213;SDS011;4148;47.974;7.824;2023-01-29T11:20:00;7.23;;;5.57;;
8213;SDS011;4148;47.974;7.824;2023-01-29T11:22:28;7.23;;;4.40;;
8213;SDS011;4148;47.974;7.824;2023-01-29T11:25:07;6.23;;;4.53;;
8213;SDS011;4148;47.974;7.824;2023-01-29T11:27:42;6.70;;;5.07;;
8213;SDS011;4148;47.974;7.824;2023-01-29T11:30:18;5.90;;;4.17;;
8213;SDS011;4148;47.974;7.824;2023-01-29T11:32:50;8.10;;;5.80;;
8213;SDS011;4148;47.974;7.824;2023-01-29T11:35:24;9.20;;;5.73;;
8213;SDS011;4148;47.974;7.824;2023-01-29T11:37:53;6.40;;;4.90;;
8213;SDS011;4148;47.974;7.824;2023-01-29T11:40:34;8.70;;;6.00;;
8213;SDS011;4148;47.974;7.824;2023-01-29T11:43:11;5.87;;;5.23;;
8213;SDS011;4148;47.974;7.824;2023-01-29T11:45:45;7.90;;;5.67;;
8213;SDS011;4148;47.974;7.824;2023-01-29T11:48:14;8.33;;;6.20;;
8213;SDS011;4148;47.974;7.824;2023-01-29T11:50:49;6.27;;;5.10;;
8213;SDS011;4148;47.974;7.824;2023-01-29T11:53:22;6.30;;;5.23;;
8213;SDS011;4148;47.974;7.824;2023-01-29T11:55:59;6.73;;;5.50;;
8213;SDS011;4148;47.974;7.824;2023-01-29T11:58:31;7.30;;;5.23;;
8213;SDS011;4148;47.974;7.824;2023-01-29T12:01:02;6.90;;;5.40;;
8213;SDS011;4148;47.974;7.824;2023-01-29T12:03:33;7.33;;;5.27;;
8213;SDS011;4148;47.974;7.824;2023-01-29T12:06:04;7.57;;;5.60;;
8213;SDS011;4148;47.974;7.824;2023-01-29T12:08:35;9.53;;;6.00;;
8213;SDS011;4148;47.974;7.824;2023-01-29T12:11:09;7.93;;;5.57;;
8213;SDS011;4148;47.974;7.824;2023-01-29T12:13:39;8.23;;;5.67;;
8213;SDS011;4148;47.974;7.824;2023-01-29T12:16:12;8.90;;;5.23;;
8213;SDS011;4148;47.974;7.824;2023-01-29T12:18:45;10.80;;;4.73;;
8213;SDS011;4148;47.974;7.824;2023-01-29T12:21:19;8.33;;;5.90;;
8213;SDS011;4148;47.974;7.824;2023-01-29T12:23:55;7.43;;;5.00;;
8213;SDS011;4148;47.974;7.824;2023-01-29T12:26:28;6.40;;;5.23;;
8213;SDS011;4148;47.974;7.824;2023-01-29T12:29:06;8.60;;;5.40;;
8213;SDS011;4148;47.974;7.824;2023-01-29T12:31:45;7.30;;;5.20;;
8213;SDS011;4148;47.974;7.824;2023-01-29T12:34:22;6.53;;;5.03;;
8213;SDS011;4148;47.974;7.824;2023-01-29T12:36:58;6.90;;;5.13;;
8213;SDS011;4148;47.974;7.824;2023-01-29T12:39:30;7.40;;;5.50;;
8213;SDS011;4148;47.974;7.824;2023-01-29T12:41:59;7.87;;;5.60;;
8213;SDS011;4148;47.974;7.824;2023-01-29T12:44:30;7.13;;;5.23;;
8213;SDS011;4148;47.974;7.824;2023-01-29T12:47:10;7.20;;;5.33;;
8213;SDS011;4148;47.974;7.824;2023-01-29T12:49:42;7.00;;;5.10;;
8213;SDS011;4148;47.974;7.824;2023-01-29T12:52:16;7.87;;;5.63;;
8213;SDS011;4148;47.974;7.824;2023-01-29T12:54:49;7.50;;;5.40;;
8213;SDS011;4148;47.974;7.824;2023-01-29T12:57:23;7.83;;;5.20;;
8213;SDS011;4148;47.974;7.824;2023-01-29T13:00:06;8.67;;;5.90;;
8213;SDS011;4148;47.974;7.824;2023-01-29T13:02:43;9.10;;;5.53;;
8213;SDS011;4148;47.974;7.824;2023-01-29T13:05:17;8.83;;;5.70;;
8213;SDS011;4148;47.974;7.824;2023-01-29T13:07:50;7.93;;;5.77;;
8213;SDS011;4148;47.974;7.824;2023-01-29T13:10:24;7.27;;;5.10;;
8213;SDS011;4148;47.974;7.824;2023-01-29T13:12:56;8.97;;;6.13;;
8213;SDS011;4148;47.974;7.824;2023-01-29T13:15:28;9.93;;;5.80;;
8213;SDS011;4148;47.974;7.824;2023-01-29T13:18:05;7.80;;;5.80;;
8213;SDS011;4148;47.974;7.824;2023-01-29T13:20:49;8.23;;;5.37;;
8213;SDS011;4148;47.974;7.824;2023-01-29T13:23:19;8.30;;;5.80;;
8213;SDS011;4148;47.974;7.824;2023-01-29T13:25:49;7.57;;;5.67;;
8213;SDS011;4148;47.974;7.824;2023-01-29T13:28:18;7.60;;;5.80;;
8213;SDS011;4148;47.974;7.824;2023-01-29T13:33:38;8.07;;;5.50;;
8213;SDS011;4148;47.974;7.824;2023-01-29T13:36:10;9.37;;;5.93;;
8213;SDS011;4148;47.974;7.824;2023-01-29T13:38:42;8.17;;;5.70;;
8213;SDS011;4148;47.974;7.824;2023-01-29T13:41:11;9.60;;;6.13;;
8213;SDS011;4148;47.974;7.824;2023-01-29T13:43:41;10.03;;;6.47;;
8213;SDS011;4148;47.974;7.824;2023-01-29T13:46:15;9.10;;;6.10;;
8213;SDS011;4148;47.974;7.824;2023-01-29T13:48:48;8.53;;;5.97;;
8213;SDS011;4148;47.974;7.824;2023-01-29T13:51:20;8.27;;;6.60;;
8213;SDS011;4148;47.974;7.824;2023-01-29T13:53:52;9.67;;;6.60;;
8213;SDS011;4148;47.974;7.824;2023-01-29T13:56:29;7.97;;;6.07;;
8213;SDS011;4148;47.974;7.824;2023-01-29T13:59:19;10.77;;;7.80;;
8213;SDS011;4148;47.974;7.824;2023-01-29T14:02:02;12.73;;;7.00;;
8213;SDS011;4148;47.974;7.824;2023-01-29T14:04:46;11.20;;;6.40;;
8213;SDS011;4148;47.974;7.824;2023-01-29T14:10:17;10.23;;;7.37;;
8213;SDS011;4148;47.974;7.824;2023-01-29T14:12:50;9.50;;;6.70;;
8213;SDS011;4148;47.974;7.824;2023-01-29T14:15:22;10.40;;;6.77;;
8213;SDS011;4148;47.974;7.824;2023-01-29T14:18:05;10.90;;;7.07;;
8213;SDS011;4148;47.974;7.824;2023-01-29T14:20:59;10.53;;;6.70;;
8213;SDS011;4148;47.974;7.824;2023-01-29T14:23:33;9.10;;;6.30;;
8213;SDS011;4148;47.974;7.824;2023-01-29T14:26:23;10.10;;;7.27;;
8213;SDS011;4148;47.974;7.824;2023-01-29T14:28:59;10.67;;;6.90;;
8213;SDS011;4148;47.974;7.824;2023-01-29T14:31:38;9.03;;;6.50;;
8213;SDS011;4148;47.974;7.824;2023-01-29T14:34:16;10.33;;;6.90;;
8213;SDS011;4148;47.974;7.824;2023-01-29T14:36:53;8.80;;;6.90;;
8213;SDS011;4148;47.974;7.824;2023-01-29T14:42:17;10.60;;;7.67;;
8213;SDS011;4148;47.974;7.824;2023-01-29T14:44:59;11.13;;;7.23;;
8213;SDS011;4148;47.974;7.824;2023-01-29T14:53:22;12.70;;;7.50;;
8213;SDS011;4148;47.974;7.824;2023-01-29T14:56:00;12.97;;;8.37;;
8213;SDS011;4148;47.974;7.824;2023-01-29T14:58:33;12.13;;;7.67;;
8213;SDS011;4148;47.974;7.824;2023-01-29T15:01:05;11.40;;;7.50;;
8213;SDS011;4148;47.974;7.824;2023-01-29T15:03:40;8.70;;;6.87;;
8213;SDS011;4148;47.974;7.824;2023-01-29T15:06:13;11.03;;;7.40;;
8213;SDS011;4148;47.974;7.824;2023-01-29T15:08:47;10.83;;;7.67;;
8213;SDS011;4148;47.974;7.824;2023-01-29T15:11:22;12.63;;;8.23;;
8213;SDS011;4148;47.974;7.824;2023-01-29T15:14:06;10.00;;;7.13;;
8213;SDS011;4148;47.974;7.824;2023-01-29T15:16:47;13.47;;;8.90;;
8213;SDS011;4148;47.974;7.824;2023-01-29T15:19:22;12.67;;;8.10;;
8213;SDS011;4148;47.974;7.824;2023-01-29T15:22:00;11.80;;;7.37;;
8213;SDS011;4148;47.974;7.824;2023-01-29T15:24:30;11.87;;;7.47;;
8213;SDS011;4148;47.974;7.824;2023-01-29T15:26:58;10.90;;;7.17;;
8213;SDS011;4148;47.974;7.824;2023-01-29T15:29:27;12.03;;;8.00;;
8213;SDS011;4148;47.974;7.824;2023-01-29T15:31:55;12.83;;;8.30;;
8213;SDS011;4148;47.974;7.824;2023-01-29T15:34:24;12.20;;;7.90;;
8213;SDS011;4148;47.974;7.824;2023-01-29T15:36:52;9.93;;;7.10;;
8213;SDS011;4148;47.974;7.824;2023-01-29T15:39:21;11.90;;;7.67;;
8213;SDS011;4148;47.974;7.824;2023-01-29T15:42:03;10.67;;;7.27;;
8213;SDS011;4148;47.974;7.824;2023-01-29T15:44:36;12.27;;;7.50;;
8213;SDS011;4148;47.974;7.824;2023-01-29T15:47:11;12.43;;;7.37;;
8213;SDS011;4148;47.974;7.824;2023-01-29T15:49:41;11.40;;;7.10;;
8213;SDS011;4148;47.974;7.824;2023-01-29T15:52:13;12.03;;;8.17;;